sensor_id;sensor_type;location;lat;lon;timestamp;P1;durP1;ratioP1;P2;durP2;ratioP2
66472;SDS011;53291;51.680;8.344;2022-07-18T00:00:21;3.77;;;1.00;;
66472;SDS011;53291;51.680;8.344;2022-07-18T00:02:46;4.78;;;1.13;;
66472;SDS011;53291;51.680;8.344;2022-07-18T00:05:11;2.30;;;0.93;;
66472;SDS011;53291;51.680;8.344;2022-07-18T00:07:37;3.15;;;0.88;;
66472;SDS011;53291;51.680;8.344;2022-07-18T00:10:02;4.07;;;1.25;;
66472;SDS011;53291;51.680;8.344;2022-07-18T00:12:28;3.33;;;0.93;;
66472;SDS011;53291;51.680;8.344;2022-07-18T00:14:54;3.53;;;1.10;;
66472;SDS011;53291;51.680;8.344;2022-07-18T00:17:19;3.67;;;1.30;;
66472;SDS011;53291;51.680;8.344;2022-07-18T00:19:45;3.75;;;1.13;;
66472;SDS011;53291;51.680;8.344;2022-07-18T00:22:10;2.58;;;1.02;;
66472;SDS011;53291;51.680;8.344;2022-07-18T00:24:36;2.55;;;0.93;;
66472;SDS011;53291;51.680;8.344;2022-07-18T00:27:02;3.92;;;1.65;;
66472;SDS011;53291;51.680;8.344;2022-07-18T00:29:29;2.42;;;1.27;;
66472;SDS011;53291;51.680;8.344;2022-07-18T00:31:55;3.28;;;0.90;;
66472;SDS011;53291;51.680;8.344;2022-07-18T00:34:20;1.83;;;0.90;;
66472;SDS011;53291;51.680;8.344;2022-07-18T00:36:46;2.15;;;0.93;;
66472;SDS011;53291;51.680;8.344;2022-07-18T00:39:11;2.80;;;0.95;;
66472;SDS011;53291;51.680;8.344;2022-07-18T00:41:36;2.35;;;0.85;;
66472;SDS011;53291;51.680;8.344;2022-07-18T00:44:02;2.45;;;1.00;;
66472;SDS011;53291;51.680;8.344;2022-07-18T00:46:28;2.33;;;0.70;;
66472;SDS011;53291;51.680;8.344;2022-07-18T00:48:54;2.40;;;0.93;;
66472;SDS011;53291;51.680;8.344;2022-07-18T00:51:20;2.45;;;1.95;;
66472;SDS011;53291;51.680;8.344;2022-07-18T00:53:46;2.67;;;1.05;;
66472;SDS011;53291;51.680;8.344;2022-07-18T00:56:14;2.30;;;0.73;;
66472;SDS011;53291;51.680;8.344;2022-07-18T00:58:42;3.08;;;1.10;;
66472;SDS011;53291;51.680;8.344;2022-07-18T01:01:08;2.63;;;0.80;;
66472;SDS011;53291;51.680;8.344;2022-07-18T01:03:51;2.35;;;0.77;;
66472;SDS011;53291;51.680;8.344;2022-07-18T01:06:17;2.28;;;0.73;;
66472;SDS011;53291;51.680;8.344;2022-07-18T01:08:43;4.53;;;1.30;;
66472;SDS011;53291;51.680;8.344;2022-07-18T01:11:08;2.55;;;1.08;;
66472;SDS011;53291;51.680;8.344;2022-07-18T01:13:35;2.03;;;0.65;;
66472;SDS011;53291;51.680;8.344;2022-07-18T01:16:01;1.77;;;1.10;;
66472;SDS011;53291;51.680;8.344;2022-07-18T01:18:26;2.80;;;0.95;;
66472;SDS011;53291;51.680;8.344;2022-07-18T01:20:53;6.03;;;1.38;;
66472;SDS011;53291;51.680;8.344;2022-07-18T01:23:18;3.45;;;0.95;;
66472;SDS011;53291;51.680;8.344;2022-07-18T01:25:44;3.05;;;0.77;;
66472;SDS011;53291;51.680;8.344;2022-07-18T01:28:09;3.28;;;1.13;;
66472;SDS011;53291;51.680;8.344;2022-07-18T01:30:34;3.07;;;1.27;;
66472;SDS011;53291;51.680;8.344;2022-07-18T01:33:00;3.65;;;1.95;;
66472;SDS011;53291;51.680;8.344;2022-07-18T01:35:27;1.92;;;0.85;;
66472;SDS011;53291;51.680;8.344;2022-07-18T01:37:55;2.58;;;1.30;;
66472;SDS011;53291;51.680;8.344;2022-07-18T01:40:22;2.85;;;1.23;;
66472;SDS011;53291;51.680;8.344;2022-07-18T01:42:48;2.38;;;0.90;;
66472;SDS011;53291;51.680;8.344;2022-07-18T01:45:14;2.38;;;0.93;;
66472;SDS011;53291;51.680;8.344;2022-07-18T01:47:40;2.22;;;1.08;;
66472;SDS011;53291;51.680;8.344;2022-07-18T01:50:06;3.35;;;1.00;;
66472;SDS011;53291;51.680;8.344;2022-07-18T01:52:32;2.10;;;1.10;;
66472;SDS011;53291;51.680;8.344;2022-07-18T01:54:57;2.58;;;1.38;;
66472;SDS011;53291;51.680;8.344;2022-07-18T01:57:23;2.50;;;0.77;;
66472;SDS011;53291;51.680;8.344;2022-07-18T01:59:48;1.95;;;1.67;;
66472;SDS011;53291;51.680;8.344;2022-07-18T02:02:14;2.47;;;1.00;;
66472;SDS011;53291;51.680;8.344;2022-07-18T02:04:39;1.90;;;0.80;;
66472;SDS011;53291;51.680;8.344;2022-07-18T02:07:23;3.05;;;0.93;;
66472;SDS011;53291;51.680;8.344;2022-07-18T02:09:49;2.43;;;0.90;;
66472;SDS011;53291;51.680;8.344;2022-07-18T02:12:14;2.13;;;0.85;;
66472;SDS011;53291;51.680;8.344;2022-07-18T02:14:39;2.30;;;1.00;;
66472;SDS011;53291;51.680;8.344;2022-07-18T02:17:05;2.45;;;0.93;;
66472;SDS011;53291;51.680;8.344;2022-07-18T02:19:30;2.88;;;1.17;;
66472;SDS011;53291;51.680;8.344;2022-07-18T02:21:56;2.92;;;0.85;;
66472;SDS011;53291;51.680;8.344;2022-07-18T02:24:21;1.88;;;0.63;;
66472;SDS011;53291;51.680;8.344;2022-07-18T02:26:46;1.48;;;0.73;;
66472;SDS011;53291;51.680;8.344;2022-07-18T02:29:12;2.70;;;1.77;;
66472;SDS011;53291;51.680;8.344;2022-07-18T02:31:37;3.90;;;1.05;;
66472;SDS011;53291;51.680;8.344;2022-07-18T02:34:02;2.95;;;0.98;;
66472;SDS011;53291;51.680;8.344;2022-07-18T02:36:35;3.67;;;0.93;;
66472;SDS011;53291;51.680;8.344;2022-07-18T02:39:04;2.72;;;1.17;;
66472;SDS011;53291;51.680;8.344;2022-07-18T02:41:30;3.33;;;0.98;;
66472;SDS011;53291;51.680;8.344;2022-07-18T02:43:56;4.43;;;1.42;;
66472;SDS011;53291;51.680;8.344;2022-07-18T02:46:21;2.72;;;0.88;;
66472;SDS011;53291;51.680;8.344;2022-07-18T02:48:47;3.60;;;0.82;;
66472;SDS011;53291;51.680;8.344;2022-07-18T02:51:12;2.08;;;0.68;;
66472;SDS011;53291;51.680;8.344;2022-07-18T02:53:37;2.55;;;0.85;;
66472;SDS011;53291;51.680;8.344;2022-07-18T02:56:03;2.83;;;0.90;;
66472;SDS011;53291;51.680;8.344;2022-07-18T02:58:28;2.35;;;1.20;;
66472;SDS011;53291;51.680;8.344;2022-07-18T03:00:54;3.13;;;1.00;;
66472;SDS011;53291;51.680;8.344;2022-07-18T03:03:19;3.25;;;0.85;;
66472;SDS011;53291;51.680;8.344;2022-07-18T03:05:44;3.80;;;1.00;;
66472;SDS011;53291;51.680;8.344;2022-07-18T03:08:10;2.55;;;1.20;;
66472;SDS011;53291;51.680;8.344;2022-07-18T03:10:35;2.05;;;1.02;;
66472;SDS011;53291;51.680;8.344;2022-07-18T03:13:01;3.97;;;0.95;;
66472;SDS011;53291;51.680;8.344;2022-07-18T03:15:26;6.05;;;1.65;;
66472;SDS011;53291;51.680;8.344;2022-07-18T03:17:52;5.45;;;1.25;;
66472;SDS011;53291;51.680;8.344;2022-07-18T03:20:17;3.22;;;0.80;;
66472;SDS011;53291;51.680;8.344;2022-07-18T03:22:42;3.67;;;1.30;;
66472;SDS011;53291;51.680;8.344;2022-07-18T03:25:08;3.97;;;1.50;;
66472;SDS011;53291;51.680;8.344;2022-07-18T03:27:33;4.65;;;1.70;;
66472;SDS011;53291;51.680;8.344;2022-07-18T03:29:59;2.47;;;1.90;;
66472;SDS011;53291;51.680;8.344;2022-07-18T03:32:24;5.43;;;1.13;;
66472;SDS011;53291;51.680;8.344;2022-07-18T03:34:49;3.58;;;1.55;;
66472;SDS011;53291;51.680;8.344;2022-07-18T03:37:15;3.08;;;1.15;;
66472;SDS011;53291;51.680;8.344;2022-07-18T03:39:40;3.15;;;1.13;;
66472;SDS011;53291;51.680;8.344;2022-07-18T03:42:06;3.03;;;1.02;;
66472;SDS011;53291;51.680;8.344;2022-07-18T03:44:31;4.78;;;1.25;;
66472;SDS011;53291;51.680;8.344;2022-07-18T03:46:57;4.60;;;1.50;;
66472;SDS011;53291;51.680;8.344;2022-07-18T03:49:22;4.32;;;2.03;;
66472;SDS011;53291;51.680;8.344;2022-07-18T03:51:47;3.83;;;1.30;;
66472;SDS011;53291;51.680;8.344;2022-07-18T03:54:13;3.90;;;1.23;;
66472;SDS011;53291;51.680;8.344;2022-07-18T03:56:38;2.92;;;1.35;;
66472;SDS011;53291;51.680;8.344;2022-07-18T03:59:04;3.10;;;1.50;;
66472;SDS011;53291;51.680;8.344;2022-07-18T04:01:29;3.53;;;1.02;;
66472;SDS011;53291;51.680;8.344;2022-07-18T04:03:55;3.60;;;1.05;;
66472;SDS011;53291;51.680;8.344;2022-07-18T04:06:20;3.60;;;1.20;;
66472;SDS011;53291;51.680;8.344;2022-07-18T04:08:45;4.45;;;1.15;;
66472;SDS011;53291;51.680;8.344;2022-07-18T04:11:11;3.22;;;1.05;;
66472;SDS011;53291;51.680;8.344;2022-07-18T04:13:36;3.58;;;0.82;;
66472;SDS011;53291;51.680;8.344;2022-07-18T04:16:02;4.45;;;1.02;;
66472;SDS011;53291;51.680;8.344;2022-07-18T04:18:27;3.47;;;1.00;;
66472;SDS011;53291;51.680;8.344;2022-07-18T04:20:53;4.60;;;1.13;;
66472;SDS011;53291;51.680;8.344;2022-07-18T04:23:18;4.70;;;0.93;;
66472;SDS011;53291;51.680;8.344;2022-07-18T04:25:43;4.03;;;1.35;;
66472;SDS011;53291;51.680;8.344;2022-07-18T04:28:10;3.30;;;1.17;;
66472;SDS011;53291;51.680;8.344;2022-07-18T04:30:37;3.00;;;0.93;;
66472;SDS011;53291;51.680;8.344;2022-07-18T04:33:04;4.68;;;1.23;;
66472;SDS011;53291;51.680;8.344;2022-07-18T04:35:31;5.20;;;1.35;;
66472;SDS011;53291;51.680;8.344;2022-07-18T04:37:57;3.42;;;1.17;;
66472;SDS011;53291;51.680;8.344;2022-07-18T04:40:23;3.85;;;1.33;;
66472;SDS011;53291;51.680;8.344;2022-07-18T04:42:49;5.40;;;1.58;;
66472;SDS011;53291;51.680;8.344;2022-07-18T04:45:15;3.78;;;1.35;;
66472;SDS011;53291;51.680;8.344;2022-07-18T04:47:40;3.42;;;1.02;;
66472;SDS011;53291;51.680;8.344;2022-07-18T04:50:06;2.30;;;1.02;;
66472;SDS011;53291;51.680;8.344;2022-07-18T04:52:36;3.88;;;1.75;;
66472;SDS011;53291;51.680;8.344;2022-07-18T04:55:07;5.10;;;1.27;;
66472;SDS011;53291;51.680;8.344;2022-07-18T04:57:33;3.10;;;1.55;;
66472;SDS011;53291;51.680;8.344;2022-07-18T04:59:59;3.00;;;0.93;;
66472;SDS011;53291;51.680;8.344;2022-07-18T05:02:25;4.18;;;1.08;;
66472;SDS011;53291;51.680;8.344;2022-07-18T05:04:51;2.97;;;1.30;;
66472;SDS011;53291;51.680;8.344;2022-07-18T05:07:16;3.75;;;1.08;;
66472;SDS011;53291;51.680;8.344;2022-07-18T05:09:41;4.53;;;1.13;;
66472;SDS011;53291;51.680;8.344;2022-07-18T05:12:07;3.70;;;1.80;;
66472;SDS011;53291;51.680;8.344;2022-07-18T05:14:32;5.80;;;1.15;;
66472;SDS011;53291;51.680;8.344;2022-07-18T05:16:57;4.00;;;1.10;;
66472;SDS011;53291;51.680;8.344;2022-07-18T05:19:23;4.30;;;0.90;;
66472;SDS011;53291;51.680;8.344;2022-07-18T05:21:48;4.07;;;0.93;;
66472;SDS011;53291;51.680;8.344;2022-07-18T05:24:13;6.15;;;1.52;;
66472;SDS011;53291;51.680;8.344;2022-07-18T05:26:39;3.08;;;1.02;;
66472;SDS011;53291;51.680;8.344;2022-07-18T05:29:04;5.25;;;1.42;;
66472;SDS011;53291;51.680;8.344;2022-07-18T05:31:30;2.65;;;1.52;;
66472;SDS011;53291;51.680;8.344;2022-07-18T05:33:55;6.15;;;1.63;;
66472;SDS011;53291;51.680;8.344;2022-07-18T05:36:20;3.00;;;1.35;;
66472;SDS011;53291;51.680;8.344;2022-07-18T05:38:46;3.72;;;1.33;;
66472;SDS011;53291;51.680;8.344;2022-07-18T05:41:11;5.70;;;1.52;;
66472;SDS011;53291;51.680;8.344;2022-07-18T05:43:36;5.68;;;1.38;;
66472;SDS011;53291;51.680;8.344;2022-07-18T05:46:02;2.17;;;1.05;;
66472;SDS011;53291;51.680;8.344;2022-07-18T05:48:27;5.70;;;1.55;;
66472;SDS011;53291;51.680;8.344;2022-07-18T05:50:53;18.63;;;6.20;;
66472;SDS011;53291;51.680;8.344;2022-07-18T05:53:18;13.93;;;5.30;;
66472;SDS011;53291;51.680;8.344;2022-07-18T05:55:43;13.93;;;5.88;;
66472;SDS011;53291;51.680;8.344;2022-07-18T05:58:09;7.22;;;2.13;;
66472;SDS011;53291;51.680;8.344;2022-07-18T06:00:34;5.63;;;1.85;;
66472;SDS011;53291;51.680;8.344;2022-07-18T06:03:00;8.38;;;2.75;;
66472;SDS011;53291;51.680;8.344;2022-07-18T06:05:25;13.23;;;4.35;;
66472;SDS011;53291;51.680;8.344;2022-07-18T06:07:51;7.30;;;2.70;;
66472;SDS011;53291;51.680;8.344;2022-07-18T06:10:17;19.73;;;5.97;;
66472;SDS011;53291;51.680;8.344;2022-07-18T06:12:43;36.30;;;12.20;;
66472;SDS011;53291;51.680;8.344;2022-07-18T06:15:09;56.72;;;18.70;;
66472;SDS011;53291;51.680;8.344;2022-07-18T06:17:34;27.65;;;9.60;;
66472;SDS011;53291;51.680;8.344;2022-07-18T06:20:00;16.73;;;5.88;;
66472;SDS011;53291;51.680;8.344;2022-07-18T06:22:25;17.13;;;5.47;;
66472;SDS011;53291;51.680;8.344;2022-07-18T06:24:51;15.13;;;5.03;;
66472;SDS011;53291;51.680;8.344;2022-07-18T06:27:16;13.70;;;4.20;;
66472;SDS011;53291;51.680;8.344;2022-07-18T06:29:42;6.10;;;1.73;;
66472;SDS011;53291;51.680;8.344;2022-07-18T06:32:07;19.30;;;7.15;;
66472;SDS011;53291;51.680;8.344;2022-07-18T06:34:33;15.35;;;5.75;;
66472;SDS011;53291;51.680;8.344;2022-07-18T06:36:58;7.32;;;2.75;;
66472;SDS011;53291;51.680;8.344;2022-07-18T06:39:23;8.67;;;2.43;;
66472;SDS011;53291;51.680;8.344;2022-07-18T06:41:49;8.10;;;2.25;;
66472;SDS011;53291;51.680;8.344;2022-07-18T06:44:14;4.20;;;1.40;;
66472;SDS011;53291;51.680;8.344;2022-07-18T06:46:40;8.60;;;2.80;;
66472;SDS011;53291;51.680;8.344;2022-07-18T06:49:06;6.07;;;2.03;;
66472;SDS011;53291;51.680;8.344;2022-07-18T06:51:31;2.33;;;1.13;;
66472;SDS011;53291;51.680;8.344;2022-07-18T06:53:57;4.95;;;1.45;;
66472;SDS011;53291;51.680;8.344;2022-07-18T06:56:23;5.55;;;1.73;;
66472;SDS011;53291;51.680;8.344;2022-07-18T06:58:50;3.25;;;1.33;;
66472;SDS011;53291;51.680;8.344;2022-07-18T07:01:16;6.72;;;1.48;;
66472;SDS011;53291;51.680;8.344;2022-07-18T07:03:43;8.10;;;1.33;;
66472;SDS011;53291;51.680;8.344;2022-07-18T07:06:09;4.93;;;1.92;;
66472;SDS011;53291;51.680;8.344;2022-07-18T07:08:34;2.93;;;1.13;;
66472;SDS011;53291;51.680;8.344;2022-07-18T07:11:00;6.18;;;1.80;;
66472;SDS011;53291;51.680;8.344;2022-07-18T07:13:26;6.13;;;1.42;;
66472;SDS011;53291;51.680;8.344;2022-07-18T07:15:51;3.10;;;1.60;;
66472;SDS011;53291;51.680;8.344;2022-07-18T07:18:16;5.50;;;1.33;;
66472;SDS011;53291;51.680;8.344;2022-07-18T07:20:42;2.78;;;1.15;;
66472;SDS011;53291;51.680;8.344;2022-07-18T07:23:07;5.20;;;1.13;;
66472;SDS011;53291;51.680;8.344;2022-07-18T07:25:33;4.10;;;1.08;;
66472;SDS011;53291;51.680;8.344;2022-07-18T07:28:00;4.13;;;1.60;;
66472;SDS011;53291;51.680;8.344;2022-07-18T07:30:25;4.10;;;1.02;;
66472;SDS011;53291;51.680;8.344;2022-07-18T07:32:51;5.30;;;1.30;;
66472;SDS011;53291;51.680;8.344;2022-07-18T07:35:17;4.65;;;1.73;;
66472;SDS011;53291;51.680;8.344;2022-07-18T07:37:45;5.47;;;1.10;;
66472;SDS011;53291;51.680;8.344;2022-07-18T07:40:12;3.97;;;1.45;;
66472;SDS011;53291;51.680;8.344;2022-07-18T07:42:39;4.82;;;1.27;;
66472;SDS011;53291;51.680;8.344;2022-07-18T07:45:05;2.75;;;1.20;;
66472;SDS011;53291;51.680;8.344;2022-07-18T07:47:31;3.65;;;1.30;;
66472;SDS011;53291;51.680;8.344;2022-07-18T07:49:57;3.88;;;0.73;;
66472;SDS011;53291;51.680;8.344;2022-07-18T07:52:23;2.78;;;1.02;;
66472;SDS011;53291;51.680;8.344;2022-07-18T07:54:49;3.00;;;0.90;;
66472;SDS011;53291;51.680;8.344;2022-07-18T07:57:17;3.30;;;0.73;;
66472;SDS011;53291;51.680;8.344;2022-07-18T07:59:43;2.95;;;1.00;;
66472;SDS011;53291;51.680;8.344;2022-07-18T08:02:08;3.65;;;1.60;;
66472;SDS011;53291;51.680;8.344;2022-07-18T08:04:34;5.22;;;0.88;;
66472;SDS011;53291;51.680;8.344;2022-07-18T08:06:59;6.10;;;1.10;;
66472;SDS011;53291;51.680;8.344;2022-07-18T08:09:25;4.60;;;0.82;;
66472;SDS011;53291;51.680;8.344;2022-07-18T08:11:51;3.70;;;1.10;;
66472;SDS011;53291;51.680;8.344;2022-07-18T08:14:16;2.20;;;0.88;;
66472;SDS011;53291;51.680;8.344;2022-07-18T08:16:42;6.38;;;2.33;;
66472;SDS011;53291;51.680;8.344;2022-07-18T08:19:07;5.47;;;2.05;;
66472;SDS011;53291;51.680;8.344;2022-07-18T08:21:33;6.55;;;1.15;;
66472;SDS011;53291;51.680;8.344;2022-07-18T08:23:59;4.18;;;1.27;;
66472;SDS011;53291;51.680;8.344;2022-07-18T08:26:24;3.83;;;1.42;;
66472;SDS011;53291;51.680;8.344;2022-07-18T08:28:50;3.17;;;0.82;;
66472;SDS011;53291;51.680;8.344;2022-07-18T08:31:16;4.15;;;1.05;;
66472;SDS011;53291;51.680;8.344;2022-07-18T08:33:43;2.42;;;0.77;;
66472;SDS011;53291;51.680;8.344;2022-07-18T08:36:08;3.83;;;1.10;;
66472;SDS011;53291;51.680;8.344;2022-07-18T08:38:34;5.35;;;1.58;;
66472;SDS011;53291;51.680;8.344;2022-07-18T08:40:59;7.57;;;1.20;;
66472;SDS011;53291;51.680;8.344;2022-07-18T08:43:25;4.35;;;1.00;;
66472;SDS011;53291;51.680;8.344;2022-07-18T08:45:55;5.45;;;1.30;;
66472;SDS011;53291;51.680;8.344;2022-07-18T08:48:23;4.05;;;0.90;;
66472;SDS011;53291;51.680;8.344;2022-07-18T08:50:49;3.33;;;1.20;;
66472;SDS011;53291;51.680;8.344;2022-07-18T08:53:15;3.95;;;2.08;;
66472;SDS011;53291;51.680;8.344;2022-07-18T08:55:42;3.45;;;1.05;;
66472;SDS011;53291;51.680;8.344;2022-07-18T08:58:08;3.90;;;1.50;;
66472;SDS011;53291;51.680;8.344;2022-07-18T09:00:35;3.00;;;1.05;;
66472;SDS011;53291;51.680;8.344;2022-07-18T09:03:00;2.10;;;1.13;;
66472;SDS011;53291;51.680;8.344;2022-07-18T09:05:27;4.25;;;2.63;;
66472;SDS011;53291;51.680;8.344;2022-07-18T09:08:10;2.85;;;2.20;;
66472;SDS011;53291;51.680;8.344;2022-07-18T09:13:14;3.28;;;2.00;;
66472;SDS011;53291;51.680;8.344;2022-07-18T09:18:28;2.70;;;1.58;;
66472;SDS011;53291;51.680;8.344;2022-07-18T09:21:14;2.75;;;1.38;;
66472;SDS011;53291;51.680;8.344;2022-07-18T09:23:48;3.00;;;1.65;;
66472;SDS011;53291;51.680;8.344;2022-07-18T09:29:03;1.88;;;1.08;;
66472;SDS011;53291;51.680;8.344;2022-07-18T09:31:29;2.45;;;1.55;;
66472;SDS011;53291;51.680;8.344;2022-07-18T09:33:56;2.63;;;1.40;;
66472;SDS011;53291;51.680;8.344;2022-07-18T09:36:23;2.50;;;1.25;;
66472;SDS011;53291;51.680;8.344;2022-07-18T09:38:49;2.08;;;1.17;;
66472;SDS011;53291;51.680;8.344;2022-07-18T09:41:15;4.65;;;4.13;;
66472;SDS011;53291;51.680;8.344;2022-07-18T09:43:41;2.78;;;1.88;;
66472;SDS011;53291;51.680;8.344;2022-07-18T09:46:07;1.90;;;0.95;;
66472;SDS011;53291;51.680;8.344;2022-07-18T09:48:33;2.05;;;1.10;;
66472;SDS011;53291;51.680;8.344;2022-07-18T09:51:03;7.57;;;1.25;;
66472;SDS011;53291;51.680;8.344;2022-07-18T09:53:39;2.22;;;1.10;;
66472;SDS011;53291;51.680;8.344;2022-07-18T09:56:09;2.80;;;1.10;;
66472;SDS011;53291;51.680;8.344;2022-07-18T09:58:39;1.90;;;1.10;;
66472;SDS011;53291;51.680;8.344;2022-07-18T10:01:07;2.92;;;1.25;;
66472;SDS011;53291;51.680;8.344;2022-07-18T10:03:34;3.50;;;1.10;;
66472;SDS011;53291;51.680;8.344;2022-07-18T10:06:00;1.67;;;1.00;;
66472;SDS011;53291;51.680;8.344;2022-07-18T10:08:28;2.95;;;0.95;;
66472;SDS011;53291;51.680;8.344;2022-07-18T10:10:56;2.78;;;0.98;;
66472;SDS011;53291;51.680;8.344;2022-07-18T10:13:24;3.70;;;1.00;;
66472;SDS011;53291;51.680;8.344;2022-07-18T10:15:51;2.78;;;0.70;;
66472;SDS011;53291;51.680;8.344;2022-07-18T10:18:18;1.58;;;0.80;;
66472;SDS011;53291;51.680;8.344;2022-07-18T10:20:50;2.33;;;1.60;;
66472;SDS011;53291;51.680;8.344;2022-07-18T10:23:20;2.72;;;1.42;;
66472;SDS011;53291;51.680;8.344;2022-07-18T10:28:30;2.03;;;1.30;;
66472;SDS011;53291;51.680;8.344;2022-07-18T10:30:55;3.45;;;1.23;;
66472;SDS011;53291;51.680;8.344;2022-07-18T10:33:44;3.03;;;1.75;;
66472;SDS011;53291;51.680;8.344;2022-07-18T10:36:15;3.35;;;1.35;;
66472;SDS011;53291;51.680;8.344;2022-07-18T10:42:19;2.67;;;1.10;;
66472;SDS011;53291;51.680;8.344;2022-07-18T10:47:05;1.70;;;1.25;;
66472;SDS011;53291;51.680;8.344;2022-07-18T10:57:43;2.22;;;1.38;;
66472;SDS011;53291;51.680;8.344;2022-07-18T11:00:34;2.00;;;1.50;;
66472;SDS011;53291;51.680;8.344;2022-07-18T11:03:08;3.95;;;3.65;;
66472;SDS011;53291;51.680;8.344;2022-07-18T11:05:38;2.25;;;1.63;;
66472;SDS011;53291;51.680;8.344;2022-07-18T11:18:24;3.67;;;2.08;;
66472;SDS011;53291;51.680;8.344;2022-07-18T11:20:50;2.60;;;2.10;;
66472;SDS011;53291;51.680;8.344;2022-07-18T11:23:17;2.70;;;2.50;;
66472;SDS011;53291;51.680;8.344;2022-07-18T11:25:47;2.15;;;1.73;;
66472;SDS011;53291;51.680;8.344;2022-07-18T11:30:40;2.08;;;1.48;;
66472;SDS011;53291;51.680;8.344;2022-07-18T11:33:06;2.47;;;1.88;;
66472;SDS011;53291;51.680;8.344;2022-07-18T11:38:12;2.53;;;1.35;;
66472;SDS011;53291;51.680;8.344;2022-07-18T11:40:47;3.08;;;1.40;;
66472;SDS011;53291;51.680;8.344;2022-07-18T11:43:18;2.83;;;1.73;;
66472;SDS011;53291;51.680;8.344;2022-07-18T11:46:12;2.97;;;1.10;;
66472;SDS011;53291;51.680;8.344;2022-07-18T11:48:38;3.58;;;1.10;;
66472;SDS011;53291;51.680;8.344;2022-07-18T11:51:10;2.20;;;1.17;;
66472;SDS011;53291;51.680;8.344;2022-07-18T11:53:41;2.00;;;1.08;;
66472;SDS011;53291;51.680;8.344;2022-07-18T11:56:10;2.70;;;1.23;;
66472;SDS011;53291;51.680;8.344;2022-07-18T11:58:37;2.75;;;1.02;;
66472;SDS011;53291;51.680;8.344;2022-07-18T12:01:03;2.70;;;1.00;;
66472;SDS011;53291;51.680;8.344;2022-07-18T12:03:29;2.08;;;1.25;;
66472;SDS011;53291;51.680;8.344;2022-07-18T12:05:55;2.15;;;1.15;;
66472;SDS011;53291;51.680;8.344;2022-07-18T12:13:38;2.60;;;0.90;;
66472;SDS011;53291;51.680;8.344;2022-07-18T12:16:04;1.48;;;0.80;;
66472;SDS011;53291;51.680;8.344;2022-07-18T12:18:30;3.38;;;0.93;;
66472;SDS011;53291;51.680;8.344;2022-07-18T12:21:10;2.67;;;1.85;;
66472;SDS011;53291;51.680;8.344;2022-07-18T12:23:35;2.08;;;1.50;;
66472;SDS011;53291;51.680;8.344;2022-07-18T12:26:01;2.72;;;1.10;;
66472;SDS011;53291;51.680;8.344;2022-07-18T12:28:26;2.60;;;1.25;;
66472;SDS011;53291;51.680;8.344;2022-07-18T12:30:53;2.50;;;1.23;;
66472;SDS011;53291;51.680;8.344;2022-07-18T12:33:19;2.90;;;0.95;;
66472;SDS011;53291;51.680;8.344;2022-07-18T12:35:44;2.55;;;1.40;;
66472;SDS011;53291;51.680;8.344;2022-07-18T12:38:11;2.30;;;1.02;;
66472;SDS011;53291;51.680;8.344;2022-07-18T12:40:39;2.42;;;1.67;;
66472;SDS011;53291;51.680;8.344;2022-07-18T12:43:30;3.65;;;1.63;;
66472;SDS011;53291;51.680;8.344;2022-07-18T12:46:08;2.30;;;1.70;;
66472;SDS011;53291;51.680;8.344;2022-07-18T12:48:34;2.25;;;1.50;;
66472;SDS011;53291;51.680;8.344;2022-07-18T12:51:01;2.95;;;1.48;;
66472;SDS011;53291;51.680;8.344;2022-07-18T12:53:31;2.55;;;0.80;;
66472;SDS011;53291;51.680;8.344;2022-07-18T12:55:59;2.97;;;1.63;;
66472;SDS011;53291;51.680;8.344;2022-07-18T12:58:25;2.85;;;1.67;;
66472;SDS011;53291;51.680;8.344;2022-07-18T13:00:50;2.67;;;1.38;;
66472;SDS011;53291;51.680;8.344;2022-07-18T13:03:16;1.85;;;1.52;;
66472;SDS011;53291;51.680;8.344;2022-07-18T13:05:42;3.55;;;1.98;;
66472;SDS011;53291;51.680;8.344;2022-07-18T13:08:08;2.67;;;1.83;;
66472;SDS011;53291;51.680;8.344;2022-07-18T13:10:35;2.05;;;0.85;;
66472;SDS011;53291;51.680;8.344;2022-07-18T13:13:02;2.90;;;0.90;;
66472;SDS011;53291;51.680;8.344;2022-07-18T13:15:28;3.22;;;1.00;;
66472;SDS011;53291;51.680;8.344;2022-07-18T13:17:53;2.63;;;1.92;;
66472;SDS011;53291;51.680;8.344;2022-07-18T13:20:19;4.43;;;1.23;;
66472;SDS011;53291;51.680;8.344;2022-07-18T13:22:45;2.60;;;0.98;;
66472;SDS011;53291;51.680;8.344;2022-07-18T13:25:10;3.25;;;0.90;;
66472;SDS011;53291;51.680;8.344;2022-07-18T13:27:36;3.95;;;1.35;;
66472;SDS011;53291;51.680;8.344;2022-07-18T13:30:06;2.47;;;1.55;;
66472;SDS011;53291;51.680;8.344;2022-07-18T13:32:33;3.83;;;1.08;;
66472;SDS011;53291;51.680;8.344;2022-07-18T13:34:59;2.33;;;1.17;;
66472;SDS011;53291;51.680;8.344;2022-07-18T13:37:25;1.80;;;0.80;;
66472;SDS011;53291;51.680;8.344;2022-07-18T13:39:50;2.25;;;0.95;;
66472;SDS011;53291;51.680;8.344;2022-07-18T13:42:16;2.42;;;1.05;;
66472;SDS011;53291;51.680;8.344;2022-07-18T13:44:41;3.08;;;0.90;;
66472;SDS011;53291;51.680;8.344;2022-07-18T13:49:35;2.57;;;1.00;;
66472;SDS011;53291;51.680;8.344;2022-07-18T13:52:01;2.85;;;1.40;;
66472;SDS011;53291;51.680;8.344;2022-07-18T13:54:26;1.98;;;0.85;;
66472;SDS011;53291;51.680;8.344;2022-07-18T13:56:51;3.53;;;1.77;;
66472;SDS011;53291;51.680;8.344;2022-07-18T13:59:17;2.75;;;1.02;;
66472;SDS011;53291;51.680;8.344;2022-07-18T14:01:42;2.95;;;1.48;;
66472;SDS011;53291;51.680;8.344;2022-07-18T14:04:08;2.65;;;1.13;;
66472;SDS011;53291;51.680;8.344;2022-07-18T14:06:33;2.50;;;0.98;;
66472;SDS011;53291;51.680;8.344;2022-07-18T14:09:00;4.15;;;1.85;;
66472;SDS011;53291;51.680;8.344;2022-07-18T14:11:27;2.42;;;1.20;;
66472;SDS011;53291;51.680;8.344;2022-07-18T14:13:52;2.50;;;1.80;;
66472;SDS011;53291;51.680;8.344;2022-07-18T14:16:18;4.00;;;1.65;;
66472;SDS011;53291;51.680;8.344;2022-07-18T14:18:43;2.65;;;1.00;;
66472;SDS011;53291;51.680;8.344;2022-07-18T14:21:08;3.17;;;0.80;;
66472;SDS011;53291;51.680;8.344;2022-07-18T14:23:34;2.67;;;0.75;;
66472;SDS011;53291;51.680;8.344;2022-07-18T14:25:59;2.83;;;1.60;;
66472;SDS011;53291;51.680;8.344;2022-07-18T14:28:25;2.58;;;1.05;;
66472;SDS011;53291;51.680;8.344;2022-07-18T14:30:50;2.50;;;1.73;;
66472;SDS011;53291;51.680;8.344;2022-07-18T14:33:15;3.90;;;1.55;;
66472;SDS011;53291;51.680;8.344;2022-07-18T14:35:41;2.92;;;1.60;;
66472;SDS011;53291;51.680;8.344;2022-07-18T14:38:06;3.78;;;1.65;;
66472;SDS011;53291;51.680;8.344;2022-07-18T14:40:31;2.30;;;1.65;;
66472;SDS011;53291;51.680;8.344;2022-07-18T14:42:57;3.67;;;2.35;;
66472;SDS011;53291;51.680;8.344;2022-07-18T14:45:22;3.70;;;2.25;;
66472;SDS011;53291;51.680;8.344;2022-07-18T14:47:48;3.28;;;1.60;;
66472;SDS011;53291;51.680;8.344;2022-07-18T14:50:13;2.45;;;2.00;;
66472;SDS011;53291;51.680;8.344;2022-07-18T14:52:38;4.05;;;1.70;;
66472;SDS011;53291;51.680;8.344;2022-07-18T14:55:05;3.80;;;1.83;;
66472;SDS011;53291;51.680;8.344;2022-07-18T14:57:31;4.25;;;1.25;;
66472;SDS011;53291;51.680;8.344;2022-07-18T14:59:56;3.67;;;1.13;;
66472;SDS011;53291;51.680;8.344;2022-07-18T15:02:21;3.28;;;1.83;;
66472;SDS011;53291;51.680;8.344;2022-07-18T15:04:47;3.03;;;1.73;;
66472;SDS011;53291;51.680;8.344;2022-07-18T15:07:13;2.70;;;1.02;;
66472;SDS011;53291;51.680;8.344;2022-07-18T15:09:38;2.55;;;1.70;;
66472;SDS011;53291;51.680;8.344;2022-07-18T15:12:04;3.70;;;1.17;;
66472;SDS011;53291;51.680;8.344;2022-07-18T15:14:29;4.05;;;1.77;;
66472;SDS011;53291;51.680;8.344;2022-07-18T15:16:55;3.10;;;1.60;;
66472;SDS011;53291;51.680;8.344;2022-07-18T15:19:20;3.53;;;1.55;;
66472;SDS011;53291;51.680;8.344;2022-07-18T15:21:46;3.25;;;1.38;;
66472;SDS011;53291;51.680;8.344;2022-07-18T15:24:11;3.47;;;1.70;;
66472;SDS011;53291;51.680;8.344;2022-07-18T15:26:36;3.28;;;1.90;;
66472;SDS011;53291;51.680;8.344;2022-07-18T15:29:02;2.67;;;1.00;;
66472;SDS011;53291;51.680;8.344;2022-07-18T15:31:27;3.25;;;2.00;;